.
WxDataArchive / Data Records for 2013-07-24
2013-07-23 July 2013 2013-07-25

Data Records for Wednesday, 24 July 2013

Time	Temp	Chill	HIndex	Humid	Dewpt	 Wind 	HiWind	WindDir	Rain 	Barom 
-----	----	-----	------	-----	-----	------	------	-------	-----	----- 
00:00	62.3	62.3	62.3	76	54.6	1	4	292	0.00	29.859 
00:05	62.1	62.1	62.1	77	54.8	0	3	292	0.00	29.859 
00:10	62.0	62.0	62.0	77	54.7	0	2	292	0.00	29.859 
00:15	61.8	61.8	61.8	78	54.9	0	2	292	0.00	29.861 
00:20	61.6	61.6	61.6	79	55.0	1	3	292	0.00	29.861 
00:25	61.5	61.5	61.5	79	54.9	0	2	292	0.00	29.861 
00:30	61.3	61.3	61.3	80	55.1	0	1	292	0.00	29.869 
00:35	61.2	61.2	61.2	81	55.3	0	4	315	0.00	29.869 
00:40	61.0	61.0	61.0	81	55.1	0	1	315	0.00	29.869 
00:45	60.9	60.9	60.9	81	55.0	0	1	315	0.00	29.875 
00:50	60.7	60.7	60.7	82	55.2	0	1	315	0.00	29.875 
00:55	60.7	60.7	60.7	82	55.2	0	2	315	0.00	29.875 
01:00	60.5	60.5	60.5	82	55.0	0	3	315	0.00	29.875 
01:05	60.5	60.5	60.5	81	54.6	0	3	315	0.00	29.875 
01:10	60.5	60.5	60.5	80	54.3	1	4	315	0.00	29.875 
01:15	60.7	60.7	60.7	79	54.1	0	2	315	0.00	29.875 
01:20	60.7	60.7	60.7	78	53.8	0	4	315	0.00	29.875 
01:25	60.7	60.7	60.7	77	53.4	1	4	270	0.00	29.875 
01:30	60.7	60.7	60.7	77	53.4	1	5	338	0.00	29.876 
01:35	60.5	60.5	60.5	77	53.2	1	5	315	0.00	29.876 
01:40	60.5	60.5	60.5	76	52.9	1	5	315	0.00	29.876 
01:45	60.4	60.4	60.4	76	52.8	1	4	315	0.00	29.883 
01:50	60.2	60.2	60.2	75	52.2	1	4	338	0.00	29.883 
01:55	60.1	60.1	60.1	75	52.1	1	4	315	0.00	29.883 
02:00	59.9	59.9	59.9	75	52.0	1	5	292	0.00	29.881 
02:05	59.8	59.8	59.8	75	51.9	0	2	292	0.00	29.881 
02:10	59.5	59.5	59.5	75	51.6	0	4	315	0.00	29.881 
02:15	59.2	59.2	59.2	76	51.6	0	3	112	0.00	29.889 
02:20	58.9	58.9	58.9	75	51.0	0	4	45	0.00	29.889 
02:25	58.7	58.7	58.7	75	50.8	1	4	68	0.00	29.889 
02:30	58.4	58.4	58.4	74	50.1	0	4	292	0.00	29.892 
02:35	58.3	58.3	58.3	74	50.0	1	6	22	0.00	29.892 
02:40	58.1	58.1	58.1	74	49.9	1	4	315	0.00	29.892 
02:45	58.0	58.0	58.0	74	49.8	0	2	315	0.00	29.892 
02:50	57.8	57.8	57.8	74	49.6	0	3	202	0.00	29.892 
02:55	57.6	57.6	57.6	74	49.4	0	1	202	0.00	29.892 
03:00	57.5	57.5	57.5	74	49.3	0	3	292	0.00	29.893 
03:05	57.3	57.3	57.3	74	49.1	1	4	270	0.00	29.893 
03:10	57.3	57.3	57.3	74	49.1	0	3	292	0.00	29.893 
03:15	57.2	57.2	57.2	74	49.0	0	3	292	0.00	29.895 
03:20	57.2	57.2	57.2	74	49.0	0	2	292	0.00	29.895 
03:25	57.0	57.0	57.0	74	48.8	0	1	292	0.00	29.895 
03:30	56.9	56.9	56.9	75	49.1	0	1	292	0.00	29.894 
03:35	56.7	56.7	56.7	76	49.2	0	1	292	0.00	29.894 
03:40	56.5	56.5	56.5	76	49.0	0	3	292	0.00	29.894 
03:45	56.3	56.3	56.3	77	49.2	0	1	292	0.00	29.893 
03:50	56.2	56.2	56.2	78	49.4	0	2	292	0.00	29.893 
03:55	56.0	56.0	56.0	78	49.2	0	2	292	0.00	29.893 
04:00	55.9	55.9	55.9	79	49.5	0	2	292	0.00	29.893 
04:05	55.7	55.7	55.7	79	49.3	0	1	292	0.00	29.893 
04:10	55.6	55.6	55.6	80	49.5	0	2	292	0.00	29.893 
04:15	55.4	55.4	55.4	80	49.3	0	1	292	0.00	29.899 
04:20	55.4	55.4	55.4	80	49.3	0	2	292	0.00	29.899 
04:25	55.3	55.3	55.3	80	49.2	0	1	292	0.00	29.899 
04:30	55.3	55.3	55.3	80	49.2	0	2	292	0.00	29.900 
04:35	55.1	55.1	55.1	81	49.4	0	1	292	0.00	29.900 
04:40	55.1	55.1	55.1	81	49.4	0	1	292	0.00	29.900 
04:45	55.1	55.1	55.1	81	49.4	0	3	292	0.00	29.905 
04:50	55.0	55.0	55.0	81	49.3	0	1	292	0.00	29.905 
04:55	54.8	54.8	54.8	81	49.1	0	1	292	0.00	29.905 
05:00	54.8	54.8	54.8	81	49.1	0	1	292	0.00	29.910 
05:05	54.7	54.7	54.7	81	49.0	0	1	292	0.00	29.910 
05:10	54.5	54.5	54.5	82	49.1	0	1	292	0.00	29.910 
05:15	54.4	54.4	54.4	82	49.0	0	1	292	0.00	29.917 
05:20	54.2	54.2	54.2	83	49.1	0	1	292	0.00	29.917 
05:25	54.1	54.1	54.1	83	49.1	0	0	---	0.00	29.917 
05:30	54.1	54.1	54.1	84	49.4	0	0	---	0.00	29.918 
05:35	53.9	53.9	53.9	84	49.2	0	1	292	0.00	29.918 
05:40	53.8	53.8	53.8	84	49.1	0	1	292	0.00	29.918 
05:45	53.8	53.8	53.8	84	49.1	0	1	292	0.00	29.916 
05:50	53.8	53.8	53.8	84	49.1	0	1	292	0.00	29.916 
05:55	53.8	53.8	53.8	84	49.1	0	1	292	0.00	29.916 
06:00	53.8	53.8	53.8	84	49.1	0	1	292	0.00	29.930 
06:05	53.6	53.6	53.6	84	48.9	0	1	292	0.00	29.930 
06:10	53.6	53.6	53.6	84	48.9	0	2	292	0.00	29.930 
06:15	53.6	53.6	53.6	84	48.9	0	1	292	0.00	29.934 
06:20	53.6	53.6	53.6	84	48.9	0	1	292	0.00	29.934 
06:25	53.5	53.5	53.5	84	48.8	0	1	292	0.00	29.934 
06:30	53.5	53.5	53.5	84	48.8	0	1	292	0.00	29.938 
06:35	53.5	53.5	53.5	84	48.8	0	2	292	0.00	29.938 
06:40	53.5	53.5	53.5	84	48.8	0	2	292	0.00	29.938 
06:45	53.5	53.5	53.5	84	48.8	0	2	292	0.00	29.946 
06:50	53.5	53.5	53.5	84	48.8	0	1	292	0.00	29.946 
06:55	53.5	53.5	53.5	83	48.5	0	1	292	0.00	29.946 
07:00	53.6	53.6	53.6	83	48.6	0	2	292	0.00	29.951 
07:05	53.8	53.8	53.8	83	48.8	0	1	292	0.00	29.951 
07:10	53.8	53.8	53.8	83	48.8	0	2	292	0.00	29.951 
07:15	53.9	53.9	53.9	82	48.5	1	2	292	0.00	29.954 
07:20	54.1	54.1	54.1	82	48.7	1	3	292	0.00	29.954 
07:25	54.2	54.2	54.2	81	48.5	0	2	292	0.00	29.954 
07:30	54.5	54.5	54.5	81	48.8	1	4	292	0.00	29.964 
07:35	54.7	54.7	54.7	81	49.0	1	3	292	0.00	29.964 
07:40	55.0	55.0	55.0	80	48.9	1	5	292	0.00	29.964 
07:45	55.3	55.3	55.3	79	48.9	1	4	292	0.00	29.968 
07:50	55.7	55.7	55.7	78	48.9	0	3	292	0.00	29.968 
07:55	56.2	56.2	56.2	77	49.1	1	5	292	0.00	29.968 
08:00	56.3	56.3	56.3	76	48.8	1	6	338	0.00	29.967 
08:05	56.6	56.6	56.6	75	48.8	1	5	338	0.00	29.967 
08:10	56.9	56.9	56.9	75	49.1	1	5	315	0.00	29.967 
08:15	57.3	57.3	57.3	74	49.1	1	4	112	0.00	29.967 
08:20	58.0	58.0	58.0	73	49.4	1	4	158	0.00	29.967 
08:25	58.3	58.3	58.3	73	49.7	1	4	248	0.00	29.967 
08:30	58.3	58.3	58.3	71	48.9	1	5	292	0.00	29.970 
08:35	58.4	58.4	58.4	72	49.4	1	5	270	0.00	29.970 
08:40	59.0	59.0	59.0	72	50.0	0	3	68	0.00	29.970 
08:45	59.3	59.3	59.3	70	49.5	1	3	68	0.00	29.977 
08:50	59.9	59.9	59.9	69	49.7	1	5	0	0.00	29.977 
08:55	59.9	59.9	59.9	69	49.7	1	3	292	0.00	29.977 
09:00	60.5	60.5	60.5	69	50.3	0	2	292	0.00	29.976 
09:05	61.0	61.0	61.0	68	50.4	0	2	0	0.00	29.976 
09:10	61.3	61.3	61.3	67	50.2	1	4	292	0.00	29.976 
09:15	61.5	61.5	61.5	66	50.0	1	4	315	0.00	29.979 
09:20	62.1	62.1	62.1	65	50.2	1	4	112	0.00	29.979 
09:25	62.7	62.7	62.7	65	50.8	1	6	112	0.00	29.979 
09:30	63.4	63.4	63.4	63	50.6	1	4	112	0.00	29.982 
09:35	63.4	63.4	63.4	63	50.6	1	3	112	0.00	29.982 
09:40	63.2	63.2	63.2	63	50.4	1	7	112	0.00	29.982 
09:45	63.5	63.5	63.5	63	50.7	1	2	135	0.00	29.981 
09:50	64.0	64.0	64.0	61	50.3	1	4	90	0.00	29.981 
09:55	64.2	64.2	64.2	60	50.0	1	5	90	0.00	29.981 
10:00	64.5	64.5	64.5	61	50.7	1	5	112	0.00	29.981 
10:05	64.5	64.5	64.5	59	49.8	1	4	248	0.00	29.981 
10:10	64.7	64.7	64.7	59	50.0	2	5	90	0.00	29.981 
10:15	64.7	64.7	64.7	58	49.6	2	6	112	0.00	29.986 
10:20	64.7	64.7	64.7	58	49.6	3	6	112	0.00	29.986 
10:25	64.8	64.8	64.8	60	50.6	2	7	112	0.00	29.986 
10:30	64.8	64.8	64.8	59	50.1	4	7	112	0.00	29.983 
10:35	64.8	64.8	64.8	59	50.1	3	6	90	0.00	29.983 
10:40	65.5	65.5	65.5	59	50.8	2	7	90	0.00	29.983 
10:45	65.6	65.6	65.6	57	49.9	3	6	90	0.00	29.987 
10:50	66.0	66.0	66.0	58	50.8	2	6	112	0.00	29.987 
10:55	66.3	66.3	66.3	58	51.1	2	5	112	0.00	29.987 
11:00	66.4	66.4	66.4	57	50.7	3	6	90	0.00	29.988 
11:05	66.8	66.8	66.8	58	51.5	2	4	90	0.00	29.988 
11:10	66.8	66.8	66.8	57	51.1	2	6	90	0.00	29.988 
11:15	66.9	66.9	66.9	58	51.6	2	5	112	0.00	29.987 
11:20	66.8	66.8	66.8	57	51.1	1	6	90	0.00	29.987 
11:25	66.9	66.9	66.9	58	51.6	2	5	112	0.00	29.987 
11:30	66.6	66.6	66.6	57	50.9	0	2	112	0.00	29.995 
11:35	66.4	66.4	66.4	59	51.6	1	3	112	0.00	29.995 
11:40	67.1	67.1	67.1	58	51.8	1	4	22	0.00	29.995 
11:45	67.3	67.3	67.3	57	51.5	1	4	90	0.00	29.998 
11:50	66.9	66.9	66.9	57	51.2	2	6	90	0.00	29.998 
11:55	67.1	67.1	67.1	57	51.3	3	5	112	0.00	29.998 
12:00	67.1	67.1	67.1	58	51.8	1	5	112	0.00	29.998 
12:05	66.6	66.6	66.6	57	50.9	1	4	112	0.00	29.998 
12:10	67.1	67.1	67.1	57	51.3	1	4	90	0.00	29.998 
12:15	67.9	67.9	67.9	56	51.6	1	4	90	0.00	30.003 
12:20	67.8	67.8	67.8	55	51.0	0	3	22	0.00	30.003 
12:25	67.6	67.6	67.6	56	51.3	1	4	112	0.00	30.003 
12:30	67.9	67.9	67.9	56	51.6	1	6	112	0.00	30.004 
12:35	68.6	68.6	68.6	54	51.3	1	4	112	0.00	30.004 
12:40	68.6	68.6	68.6	55	51.8	1	5	112	0.00	30.004 
12:45	69.1	69.1	69.1	57	53.2	1	4	112	0.00	30.004 
12:50	68.8	68.8	68.8	52	50.4	1	3	112	0.00	30.004 
12:55	68.6	68.6	68.6	55	51.8	1	4	112	0.00	30.004 
13:00	68.1	68.1	68.1	55	51.3	1	3	112	0.00	30.006 
13:05	68.4	68.4	68.4	54	51.1	1	4	112	0.00	30.006 
13:10	69.1	69.1	69.1	54	51.7	1	5	112	0.00	30.006 
13:15	68.8	68.8	68.8	53	51.0	1	5	90	0.00	30.005 
13:20	68.3	68.3	68.3	53	50.5	1	3	45	0.00	30.005 
13:25	68.8	68.8	68.8	54	51.5	1	4	112	0.00	30.005 
13:30	68.9	68.9	68.9	55	52.1	1	4	112	0.00	29.998 
13:35	69.8	69.8	69.8	52	51.4	2	5	90	0.00	29.998 
13:40	70.3	70.3	70.3	49	50.2	3	10	112	0.00	29.998 
13:45	69.8	69.8	69.8	52	51.4	2	10	90	0.00	29.992 
13:50	69.6	69.6	69.6	52	51.2	2	5	90	0.00	29.992 
13:55	69.8	69.8	69.8	53	51.9	2	5	90	0.00	29.992 
14:00	69.8	69.8	69.8	52	51.4	2	7	90	0.00	29.993 
14:05	70.3	70.3	70.3	51	51.3	2	7	90	0.00	29.993 
14:10	70.4	70.4	70.4	51	51.4	1	4	135	0.00	29.993 
14:15	70.9	70.9	70.9	52	52.4	1	6	112	0.00	29.988 
14:20	71.6	71.6	71.6	51	52.5	1	4	112	0.00	29.988 
14:25	71.8	71.8	71.8	46	49.9	2	6	112	0.00	29.988 
14:30	71.6	71.6	71.6	48	50.9	2	6	90	0.00	29.988 
14:35	71.6	71.6	71.6	47	50.3	1	5	90	0.00	29.988 
14:40	71.8	71.8	71.8	50	52.1	2	9	90	0.00	29.988 
14:45	72.0	72.0	72.0	50	52.3	1	3	90	0.00	29.983 
14:50	72.1	72.1	72.1	49	51.9	1	5	90	0.00	29.983 
14:55	72.5	72.5	72.5	47	51.1	2	6	90	0.00	29.983 
15:00	72.5	72.5	72.5	47	51.1	2	5	112	0.00	29.983 
15:05	72.1	72.1	72.1	50	52.4	2	6	90	0.00	29.983 
15:10	72.0	72.0	72.0	46	50.1	3	9	90	0.00	29.983 
15:15	72.1	72.1	72.1	48	51.3	1	4	112	0.00	29.986 
15:20	72.7	72.7	72.7	52	54.0	2	7	90	0.00	29.986 
15:25	73.0	73.0	73.0	49	52.7	2	5	90	0.00	29.986 
15:30	73.2	73.2	73.2	49	52.9	1	4	90	0.00	29.987 
15:35	73.2	73.2	73.2	48	52.3	2	5	112	0.00	29.987 
15:40	73.2	73.2	73.2	46	51.2	1	2	112	0.00	29.987 
15:45	73.2	73.2	73.2	47	51.7	2	5	112	0.00	29.989 
15:50	73.2	73.2	73.2	47	51.7	2	7	90	0.00	29.989 
15:55	73.0	73.0	73.0	46	51.0	1	6	90	0.00	29.989 
16:00	73.0	73.0	73.0	46	51.0	1	5	112	0.00	29.984 
16:05	73.2	73.2	73.2	45	50.6	2	6	112	0.00	29.984 
16:10	73.0	73.0	73.0	47	51.6	3	9	112	0.00	29.984 
16:15	73.0	73.0	73.0	47	51.6	2	6	90	0.00	29.987 
16:20	73.0	73.0	73.0	50	53.2	1	5	90	0.00	29.987 
16:25	73.3	73.3	73.3	48	52.4	1	3	90	0.00	29.987 
16:30	73.5	73.5	73.5	47	52.0	0	2	90	0.00	29.984 
16:35	73.7	73.7	73.7	46	51.6	1	5	90	0.00	29.984 
16:40	73.2	73.2	73.2	46	51.2	2	6	112	0.00	29.984 
16:45	73.0	73.0	73.0	47	51.6	1	3	112	0.00	29.983 
16:50	73.3	73.3	73.3	49	53.0	2	4	112	0.00	29.983 
16:55	73.9	73.9	73.9	47	52.4	1	3	112	0.00	29.983 
17:00	73.5	73.5	73.5	47	52.0	3	9	112	0.00	29.982 
17:05	73.5	73.5	73.5	47	52.0	2	4	112	0.00	29.982 
17:10	73.7	73.7	73.7	46	51.6	1	3	68	0.00	29.982 
17:15	73.0	73.0	73.0	47	51.6	2	6	90	0.00	29.985 
17:20	72.7	72.7	72.7	47	51.3	2	4	90	0.00	29.985 
17:25	72.5	72.5	72.5	48	51.7	2	5	112	0.00	29.985 
17:30	71.6	71.6	71.6	49	51.4	3	7	90	0.00	29.984 
17:35	71.6	71.6	71.6	49	51.4	1	3	90	0.00	29.984 
17:40	72.1	72.1	72.1	48	51.3	2	6	90	0.00	29.984 
17:45	72.7	72.7	72.7	50	53.0	2	6	90	0.00	29.982 
17:50	73.0	73.0	73.0	48	52.1	2	5	90	0.00	29.982 
17:55	73.3	73.3	73.3	48	52.4	1	2	90	0.00	29.982 
18:00	72.7	72.7	72.7	48	51.9	2	5	90	0.00	29.984 
18:05	72.0	72.0	72.0	50	52.3	1	3	112	0.00	29.984 
18:10	71.8	71.8	71.8	49	51.6	1	4	112	0.00	29.984 
18:15	71.8	71.8	71.8	49	51.6	1	2	112	0.00	29.983 
18:20	72.1	72.1	72.1	51	53.0	2	4	68	0.00	29.983 
18:25	72.1	72.1	72.1	50	52.4	1	3	68	0.00	29.983 
18:30	71.6	71.6	71.6	49	51.4	2	5	90	0.00	29.983 
18:35	71.1	71.1	71.1	49	51.0	1	2	90	0.00	29.983 
18:40	70.6	70.6	70.6	50	51.0	0	2	90	0.00	29.983 
18:45	70.6	70.6	70.6	51	51.6	1	3	90	0.00	29.985 
18:50	70.8	70.8	70.8	50	51.2	1	3	90	0.00	29.985 
18:55	70.8	70.8	70.8	52	52.3	0	2	90	0.00	29.985 
19:00	70.8	70.8	70.8	50	51.2	1	3	90	0.00	29.986 
19:05	70.8	70.8	70.8	49	50.7	1	4	90	0.00	29.986 
19:10	70.9	70.9	70.9	50	51.3	1	2	90	0.00	29.986 
19:15	70.9	70.9	70.9	50	51.3	1	4	90	0.00	29.984 
19:20	70.9	70.9	70.9	51	51.9	1	4	90	0.00	29.984 
19:25	70.8	70.8	70.8	48	50.1	1	5	90	0.00	29.984 
19:30	70.4	70.4	70.4	49	50.3	1	3	90	0.00	29.987 
19:35	70.4	70.4	70.4	50	50.9	1	3	90	0.00	29.987 
19:40	70.3	70.3	70.3	52	51.8	1	3	90	0.00	29.987 
19:45	70.3	70.3	70.3	52	51.8	1	3	90	0.00	29.995 
19:50	70.1	70.1	70.1	50	50.6	1	4	90	0.00	29.995 
19:55	70.1	70.1	70.1	51	51.1	1	4	90	0.00	29.995 
20:00	69.9	69.9	69.9	51	50.9	0	2	90	0.00	29.999 
20:05	69.9	69.9	69.9	51	50.9	0	1	90	0.00	29.999 
20:10	69.8	69.8	69.8	51	50.8	0	2	90	0.00	29.999 
20:15	69.8	69.8	69.8	54	52.4	0	2	90	0.00	29.996 
20:20	69.6	69.6	69.6	53	51.7	0	1	90	0.00	29.996 
20:25	69.4	69.4	69.4	53	51.5	0	2	90	0.00	29.996 
20:30	69.1	69.1	69.1	53	51.2	0	2	90	0.00	29.997 
20:35	68.8	68.8	68.8	55	52.0	0	0	---	0.00	29.997 
20:40	68.4	68.4	68.4	56	52.1	0	0	---	0.00	29.997 
20:45	67.9	67.9	67.9	56	51.6	0	0	---	0.00	30.001 
20:50	67.4	67.4	67.4	56	51.1	0	0	---	0.00	30.001 
20:55	67.1	67.1	67.1	57	51.3	0	0	---	0.00	30.001 
21:00	66.8	66.8	66.8	58	51.5	0	0	---	0.00	30.006 
21:05	66.4	66.4	66.4	59	51.6	0	0	---	0.00	30.006 
21:10	66.1	66.1	66.1	59	51.3	0	0	---	0.00	30.006 
21:15	65.8	65.8	65.8	60	51.5	0	0	---	0.00	30.004 
21:20	65.5	65.5	65.5	62	52.1	0	0	---	0.00	30.004 
21:25	65.2	65.2	65.2	62	51.8	0	0	---	0.00	30.004 
21:30	65.0	65.0	65.0	64	52.5	0	0	---	0.00	30.001 
21:35	64.7	64.7	64.7	66	53.1	0	0	---	0.00	30.001 
21:40	64.3	64.3	64.3	66	52.7	0	0	---	0.00	30.001 
21:45	64.0	64.0	64.0	67	52.8	0	0	---	0.00	30.005 
21:50	63.9	63.9	63.9	68	53.1	0	0	---	0.00	30.005 
21:55	63.5	63.5	63.5	69	53.1	0	0	---	0.00	30.005 
22:00	63.4	63.4	63.4	70	53.4	0	0	---	0.00	30.008 
22:05	63.2	63.2	63.2	70	53.2	0	0	---	0.00	30.008 
22:10	63.1	63.1	63.1	71	53.5	0	0	---	0.00	30.008 
22:15	62.9	62.9	62.9	72	53.7	0	0	---	0.00	30.005 
22:20	62.7	62.7	62.7	73	53.9	0	0	---	0.00	30.005 
22:25	62.6	62.6	62.6	73	53.8	0	0	---	0.00	30.005 
22:30	62.4	62.4	62.4	74	54.0	0	0	---	0.00	30.011 
22:35	62.3	62.3	62.3	75	54.3	0	0	---	0.00	30.011 
22:40	62.1	62.1	62.1	75	54.1	0	0	---	0.00	30.011 
22:45	62.0	62.0	62.0	76	54.3	0	0	---	0.00	30.010 
22:50	61.8	61.8	61.8	76	54.1	0	0	---	0.00	30.010 
22:55	61.6	61.6	61.6	77	54.3	0	0	---	0.00	30.010 
23:00	61.5	61.5	61.5	78	54.6	0	0	---	0.00	30.013 
23:05	61.3	61.3	61.3	78	54.4	0	0	---	0.00	30.013 
23:10	61.2	61.2	61.2	78	54.3	0	0	---	0.00	30.013 
23:15	61.0	61.0	61.0	79	54.4	0	0	---	0.00	30.014 
23:20	60.7	60.7	60.7	79	54.1	0	0	---	0.00	30.014 
23:25	60.5	60.5	60.5	79	54.0	0	0	---	0.00	30.014 
23:30	60.2	60.2	60.2	80	54.0	0	0	---	0.00	30.021 
23:35	60.1	60.1	60.1	80	53.9	0	0	---	0.00	30.021 
23:40	59.9	59.9	59.9	80	53.7	0	0	---	0.00	30.021 
23:45	59.8	59.8	59.8	80	53.6	0	0	---	0.00	30.025 
23:50	59.8	59.8	59.8	81	54.0	0	1	90	0.00	30.025 
23:55	59.6	59.6	59.6	81	53.8	0	0	---	0.00	30.025 

CoCoRaHS
IN-AL-39
A2 Web Hosting
Creative Commons License
GoDaddy
search engine by freefind advanced

loaded 2018-11-13 02:33:11 • last modified 2010-11-18 10:43:29
Privacy PolicyDisclaimer
• wx.awcolley.com is powered by PmWiki v.2002016 •
• all content (unless otherwise noted) © 2018 A W Colley